BRX1771 EETN-ESSA
Flight info
| Callsign | BRX1771 |
|---|---|
| Flight time | 1h 3m |
| Altitude | 16000 |
| Route | PETOT1T PETOT DCT RUNGA N872 XILAN XILAN6P |
| Aircraft | AT76/M-SDFGIRY/S |
Departure
| Time | 2026-05-04 21:00 |
|---|---|
| Airport | Lennart Meri Tallinn Airport (EETN) |
Arrival
| Time | 2026-05-04 22:03 |
|---|---|
| Airport | Stockholm-Arlanda Airport (ESSA) |
| Time | Latitude | Longitude | Altitude | Speed | Heading |
|---|---|---|---|---|---|
| 2026-05-04 20:42 | 59.41689 | 24.80050 | 158 ft | 0 kts | 181° |
| 2026-05-04 20:50 | 59.41708 | 24.80048 | 158 ft | 4 kts | 192° |
| 2026-05-04 20:51 | 59.41729 | 24.80062 | 158 ft | 4 kts | 201° |
| 2026-05-04 20:51 | 59.41752 | 24.80074 | 158 ft | 4 kts | 157° |
| 2026-05-04 20:51 | 59.41758 | 24.80068 | 158 ft | 0 kts | 140° |
| 2026-05-04 20:53 | 59.41758 | 24.80070 | 158 ft | 1 kts | 140° |
| 2026-05-04 20:53 | 59.41749 | 24.80120 | 158 ft | 8 kts | 92° |
| 2026-05-04 20:54 | 59.41749 | 24.80283 | 158 ft | 15 kts | 92° |
| 2026-05-04 20:54 | 59.41703 | 24.80488 | 158 ft | 19 kts | 148° |
| 2026-05-04 20:54 | 59.41574 | 24.80510 | 158 ft | 19 kts | 181° |
| 2026-05-04 20:54 | 59.41507 | 24.80697 | 158 ft | 21 kts | 92° |
| 2026-05-04 20:55 | 59.41507 | 24.81005 | 158 ft | 24 kts | 89° |
| 2026-05-04 20:55 | 59.41505 | 24.81353 | 158 ft | 27 kts | 90° |
| 2026-05-04 20:55 | 59.41504 | 24.81732 | 158 ft | 29 kts | 90° |
| 2026-05-04 20:55 | 59.41502 | 24.82133 | 158 ft | 30 kts | 91° |
| 2026-05-04 20:56 | 59.41501 | 24.82548 | 158 ft | 31 kts | 92° |
| 2026-05-04 20:56 | 59.41500 | 24.82980 | 158 ft | 32 kts | 91° |
| 2026-05-04 20:56 | 59.41499 | 24.83423 | 158 ft | 33 kts | 90° |
| 2026-05-04 20:56 | 59.41499 | 24.83876 | 158 ft | 34 kts | 91° |
| 2026-05-04 20:57 | 59.41496 | 24.84343 | 158 ft | 34 kts | 90° |
| 2026-05-04 20:57 | 59.41496 | 24.84798 | 158 ft | 32 kts | 88° |
| 2026-05-04 20:57 | 59.41494 | 24.85204 | 158 ft | 28 kts | 90° |
| 2026-05-04 20:57 | 59.41492 | 24.85563 | 158 ft | 25 kts | 91° |
| 2026-05-04 20:58 | 59.41490 | 24.85895 | 158 ft | 28 kts | 91° |
| 2026-05-04 20:58 | 59.41490 | 24.86307 | 158 ft | 32 kts | 88° |
| 2026-05-04 20:58 | 59.41485 | 24.86665 | 158 ft | 20 kts | 112° |
| 2026-05-04 20:58 | 59.41426 | 24.86706 | 158 ft | 12 kts | 184° |
| 2026-05-04 20:59 | 59.41324 | 24.86680 | 159 ft | 17 kts | 217° |
| 2026-05-04 20:59 | 59.41318 | 24.86431 | 156 ft | 21 kts | 270° |
| 2026-05-04 20:59 | 59.41315 | 24.85769 | 160 ft | 79 kts | 269° |
| 2026-05-04 20:59 | 59.41320 | 24.84341 | 221 ft | 123 kts | 266° |
| 2026-05-04 21:00 | 59.41303 | 24.82579 | 617 ft | 136 kts | 266° |
| 2026-05-04 21:00 | 59.41266 | 24.80497 | 773 ft | 167 kts | 268° |
| 2026-05-04 21:00 | 59.41265 | 24.78203 | 1382 ft | 166 kts | 267° |
| 2026-05-04 21:00 | 59.41323 | 24.75993 | 1949 ft | 160 kts | 275° |
| 2026-05-04 21:01 | 59.41480 | 24.73847 | 2447 ft | 158 kts | 278° |
| 2026-05-04 21:01 | 59.41645 | 24.71734 | 2908 ft | 157 kts | 277° |
| 2026-05-04 21:01 | 59.41803 | 24.69593 | 3301 ft | 159 kts | 276° |
| 2026-05-04 21:01 | 59.41954 | 24.67439 | 3711 ft | 160 kts | 276° |
| 2026-05-04 21:02 | 59.42099 | 24.65292 | 4175 ft | 159 kts | 277° |
| 2026-05-04 21:02 | 59.42247 | 24.63163 | 4583 ft | 160 kts | 277° |
| 2026-05-04 21:02 | 59.42396 | 24.60989 | 4979 ft | 161 kts | 277° |
| 2026-05-04 21:02 | 59.42545 | 24.58783 | 5359 ft | 163 kts | 277° |
| 2026-05-04 21:03 | 59.42696 | 24.56557 | 5744 ft | 165 kts | 276° |
| 2026-05-04 21:03 | 59.42846 | 24.54306 | 6129 ft | 167 kts | 276° |
| 2026-05-04 21:03 | 59.42994 | 24.52044 | 6526 ft | 167 kts | 276° |
| 2026-05-04 21:03 | 59.43142 | 24.49791 | 6929 ft | 166 kts | 276° |
| 2026-05-04 21:04 | 59.43289 | 24.47538 | 7321 ft | 166 kts | 275° |
| 2026-05-04 21:04 | 59.43434 | 24.45285 | 7719 ft | 166 kts | 275° |
| 2026-05-04 21:04 | 59.43579 | 24.43048 | 8140 ft | 165 kts | 275° |
| 2026-05-04 21:04 | 59.43724 | 24.40819 | 8533 ft | 165 kts | 274° |
| 2026-05-04 21:05 | 59.43873 | 24.38585 | 8929 ft | 165 kts | 274° |
| 2026-05-04 21:05 | 59.44023 | 24.36360 | 9338 ft | 164 kts | 274° |
| 2026-05-04 21:05 | 59.44170 | 24.34135 | 9722 ft | 164 kts | 273° |
| 2026-05-04 21:05 | 59.44312 | 24.31941 | 10069 ft | 164 kts | 273° |
| 2026-05-04 21:06 | 59.44453 | 24.29715 | 10410 ft | 164 kts | 273° |
| 2026-05-04 21:06 | 59.44594 | 24.27488 | 10751 ft | 164 kts | 272° |
| 2026-05-04 21:06 | 59.44735 | 24.25255 | 11085 ft | 165 kts | 272° |
| 2026-05-04 21:06 | 59.44875 | 24.23013 | 11417 ft | 165 kts | 272° |
| 2026-05-04 21:07 | 59.45015 | 24.20768 | 11749 ft | 166 kts | 272° |
| 2026-05-04 21:07 | 59.45155 | 24.18516 | 12081 ft | 166 kts | 272° |
| 2026-05-04 21:07 | 59.45294 | 24.16259 | 12410 ft | 166 kts | 272° |
| 2026-05-04 21:07 | 59.45434 | 24.13998 | 12737 ft | 167 kts | 272° |
| 2026-05-04 21:08 | 59.45574 | 24.11731 | 13072 ft | 167 kts | 272° |
| 2026-05-04 21:08 | 59.45714 | 24.09459 | 13394 ft | 168 kts | 272° |
| 2026-05-04 21:08 | 59.45854 | 24.07179 | 13699 ft | 168 kts | 272° |
| 2026-05-04 21:08 | 59.45990 | 24.04925 | 13969 ft | 169 kts | 272° |
| 2026-05-04 21:09 | 59.46129 | 24.02630 | 14243 ft | 169 kts | 272° |
| 2026-05-04 21:09 | 59.46268 | 24.00322 | 14534 ft | 170 kts | 272° |
| 2026-05-04 21:09 | 59.46408 | 23.98013 | 14809 ft | 170 kts | 272° |
| 2026-05-04 21:09 | 59.46548 | 23.95691 | 15078 ft | 171 kts | 272° |
| 2026-05-04 21:10 | 59.46688 | 23.93358 | 15345 ft | 172 kts | 272° |
| 2026-05-04 21:10 | 59.46826 | 23.91018 | 15576 ft | 174 kts | 272° |
| 2026-05-04 21:10 | 59.46971 | 23.88594 | 15669 ft | 183 kts | 272° |
| 2026-05-04 21:10 | 59.47119 | 23.86035 | 15715 ft | 193 kts | 272° |
| 2026-05-04 21:11 | 59.47276 | 23.83356 | 15737 ft | 201 kts | 272° |
| 2026-05-04 21:11 | 59.47439 | 23.80562 | 15740 ft | 209 kts | 272° |
| 2026-05-04 21:11 | 59.47607 | 23.77680 | 15744 ft | 216 kts | 273° |
| 2026-05-04 21:11 | 59.47777 | 23.74708 | 15745 ft | 221 kts | 273° |
| 2026-05-04 21:12 | 59.47954 | 23.71675 | 15740 ft | 225 kts | 273° |
| 2026-05-04 21:12 | 59.48131 | 23.68593 | 15740 ft | 228 kts | 273° |
| 2026-05-04 21:12 | 59.48311 | 23.65478 | 15739 ft | 231 kts | 273° |
| 2026-05-04 21:12 | 59.48489 | 23.62364 | 15740 ft | 232 kts | 273° |
| 2026-05-04 21:13 | 59.48670 | 23.59194 | 15738 ft | 234 kts | 273° |
| 2026-05-04 21:13 | 59.48853 | 23.56005 | 15739 ft | 235 kts | 273° |
| 2026-05-04 21:13 | 59.49032 | 23.52800 | 15739 ft | 236 kts | 273° |
| 2026-05-04 21:13 | 59.49215 | 23.49582 | 15739 ft | 237 kts | 273° |
| 2026-05-04 21:14 | 59.49395 | 23.46357 | 15735 ft | 237 kts | 273° |
| 2026-05-04 21:14 | 59.49577 | 23.43115 | 15735 ft | 238 kts | 273° |
| 2026-05-04 21:14 | 59.49758 | 23.39873 | 15734 ft | 238 kts | 272° |
| 2026-05-04 21:14 | 59.49937 | 23.36634 | 15735 ft | 238 kts | 273° |
| 2026-05-04 21:15 | 59.50118 | 23.33388 | 15750 ft | 239 kts | 272° |
| 2026-05-04 21:15 | 59.50295 | 23.30139 | 15740 ft | 239 kts | 272° |
| 2026-05-04 21:15 | 59.50475 | 23.26878 | 15735 ft | 239 kts | 272° |
| 2026-05-04 21:15 | 59.50649 | 23.23650 | 15734 ft | 239 kts | 272° |
| 2026-05-04 21:16 | 59.50829 | 23.20351 | 15734 ft | 239 kts | 272° |
| 2026-05-04 21:16 | 59.51005 | 23.17126 | 15729 ft | 239 kts | 272° |
| 2026-05-04 21:16 | 59.51204 | 23.13871 | 15732 ft | 240 kts | 274° |
| 2026-05-04 21:16 | 59.51426 | 23.10623 | 15732 ft | 240 kts | 274° |
| 2026-05-04 21:17 | 59.51672 | 23.07366 | 15732 ft | 240 kts | 275° |
| 2026-05-04 21:17 | 59.51935 | 23.04115 | 15732 ft | 240 kts | 275° |
| 2026-05-04 21:17 | 59.52204 | 23.00858 | 15732 ft | 240 kts | 275° |
| 2026-05-04 21:17 | 59.52470 | 22.97619 | 15732 ft | 240 kts | 275° |
| 2026-05-04 21:18 | 59.52734 | 22.94371 | 15735 ft | 240 kts | 275° |
| 2026-05-04 21:18 | 59.52999 | 22.91124 | 15728 ft | 240 kts | 275° |
| 2026-05-04 21:18 | 59.53263 | 22.87875 | 15728 ft | 240 kts | 275° |
| 2026-05-04 21:18 | 59.53527 | 22.84620 | 15727 ft | 240 kts | 275° |
| 2026-05-04 21:19 | 59.53791 | 22.81374 | 15727 ft | 240 kts | 275° |
| 2026-05-04 21:19 | 59.54053 | 22.78113 | 15727 ft | 240 kts | 275° |
| 2026-05-04 21:19 | 59.54226 | 22.75956 | 15726 ft | 240 kts | 275° |
| 2026-05-04 21:19 | 59.54486 | 22.72702 | 15726 ft | 240 kts | 275° |
| 2026-05-04 21:20 | 59.54748 | 22.69448 | 15724 ft | 240 kts | 275° |
| 2026-05-04 21:20 | 59.55089 | 22.65136 | 15735 ft | 241 kts | 275° |
| 2026-05-04 21:20 | 59.55350 | 22.61876 | 15725 ft | 241 kts | 275° |
| 2026-05-04 21:20 | 59.55524 | 22.59677 | 15721 ft | 241 kts | 275° |
| 2026-05-04 21:21 | 59.55779 | 22.56419 | 15720 ft | 241 kts | 275° |
| 2026-05-04 21:21 | 59.56035 | 22.53153 | 15718 ft | 240 kts | 275° |
| 2026-05-04 21:21 | 59.56290 | 22.49898 | 15724 ft | 240 kts | 275° |
| 2026-05-04 21:21 | 59.56546 | 22.46634 | 15723 ft | 240 kts | 275° |
| 2026-05-04 21:22 | 59.56797 | 22.43419 | 15717 ft | 240 kts | 275° |
| 2026-05-04 21:22 | 59.57048 | 22.40163 | 15713 ft | 240 kts | 275° |
| 2026-05-04 21:22 | 59.57299 | 22.36915 | 15718 ft | 240 kts | 275° |
| 2026-05-04 21:22 | 59.57551 | 22.33657 | 15707 ft | 240 kts | 275° |
| 2026-05-04 21:23 | 59.57801 | 22.30404 | 15719 ft | 240 kts | 275° |
| 2026-05-04 21:23 | 59.58050 | 22.27152 | 15707 ft | 239 kts | 275° |
| 2026-05-04 21:23 | 59.58297 | 22.23903 | 15707 ft | 239 kts | 275° |
| 2026-05-04 21:23 | 59.58544 | 22.20652 | 15707 ft | 239 kts | 275° |
| 2026-05-04 21:24 | 59.58793 | 22.17399 | 15710 ft | 239 kts | 275° |
| 2026-05-04 21:24 | 59.59038 | 22.14150 | 15719 ft | 239 kts | 275° |
| 2026-05-04 21:24 | 59.59281 | 22.10901 | 15710 ft | 239 kts | 275° |
| 2026-05-04 21:24 | 59.59524 | 22.07655 | 15705 ft | 239 kts | 275° |
| 2026-05-04 21:25 | 59.59769 | 22.04402 | 15704 ft | 239 kts | 275° |
| 2026-05-04 21:25 | 59.60011 | 22.01156 | 15729 ft | 239 kts | 275° |
| 2026-05-04 21:25 | 59.60253 | 21.97910 | 15717 ft | 239 kts | 275° |
| 2026-05-04 21:25 | 59.60490 | 21.94707 | 15712 ft | 238 kts | 275° |
| 2026-05-04 21:26 | 59.60728 | 21.91465 | 15710 ft | 238 kts | 275° |
| 2026-05-04 21:26 | 59.60964 | 21.88238 | 15700 ft | 238 kts | 275° |
| 2026-05-04 21:26 | 59.61201 | 21.85007 | 15700 ft | 237 kts | 275° |
| 2026-05-04 21:26 | 59.61436 | 21.81788 | 15700 ft | 237 kts | 275° |
| 2026-05-04 21:27 | 59.61671 | 21.78560 | 15700 ft | 237 kts | 275° |
| 2026-05-04 21:27 | 59.61904 | 21.75344 | 15700 ft | 237 kts | 275° |
| 2026-05-04 21:27 | 59.62137 | 21.72130 | 15700 ft | 236 kts | 275° |
| 2026-05-04 21:27 | 59.62367 | 21.68915 | 15700 ft | 236 kts | 275° |
| 2026-05-04 21:28 | 59.62598 | 21.65701 | 15701 ft | 236 kts | 275° |
| 2026-05-04 21:28 | 59.62828 | 21.62488 | 15700 ft | 236 kts | 275° |
| 2026-05-04 21:28 | 59.63056 | 21.59272 | 15699 ft | 236 kts | 275° |
| 2026-05-04 21:28 | 59.63283 | 21.56055 | 15699 ft | 236 kts | 275° |
| 2026-05-04 21:29 | 59.63510 | 21.52845 | 15698 ft | 236 kts | 275° |
| 2026-05-04 21:29 | 59.63735 | 21.49636 | 15699 ft | 236 kts | 275° |
| 2026-05-04 21:29 | 59.63962 | 21.46418 | 15699 ft | 236 kts | 275° |
| 2026-05-04 21:29 | 59.64187 | 21.43209 | 15700 ft | 236 kts | 275° |
| 2026-05-04 21:30 | 59.64410 | 21.39999 | 15700 ft | 236 kts | 275° |
| 2026-05-04 21:30 | 59.64632 | 21.36786 | 15700 ft | 236 kts | 275° |
| 2026-05-04 21:30 | 59.64857 | 21.33576 | 15706 ft | 236 kts | 274° |
| 2026-05-04 21:30 | 59.65079 | 21.30363 | 15698 ft | 236 kts | 274° |
| 2026-05-04 21:31 | 59.65518 | 21.23936 | 15693 ft | 235 kts | 274° |
| 2026-05-04 21:31 | 59.65736 | 21.20727 | 15692 ft | 235 kts | 274° |
| 2026-05-04 21:31 | 59.65953 | 21.17525 | 15691 ft | 235 kts | 274° |
| 2026-05-04 21:32 | 59.66168 | 21.14362 | 15691 ft | 235 kts | 274° |
| 2026-05-04 21:32 | 59.66384 | 21.11167 | 15691 ft | 235 kts | 274° |
| 2026-05-04 21:32 | 59.66600 | 21.07926 | 15689 ft | 234 kts | 274° |
| 2026-05-04 21:32 | 59.66812 | 21.04773 | 15689 ft | 234 kts | 274° |
| 2026-05-04 21:33 | 59.67024 | 21.01576 | 15690 ft | 234 kts | 274° |
| 2026-05-04 21:33 | 59.67236 | 20.98382 | 15691 ft | 234 kts | 274° |
| 2026-05-04 21:33 | 59.67448 | 20.95186 | 15691 ft | 234 kts | 274° |
| 2026-05-04 21:33 | 59.67660 | 20.91989 | 15691 ft | 234 kts | 274° |
| 2026-05-04 21:34 | 59.67869 | 20.88789 | 15691 ft | 234 kts | 274° |
| 2026-05-04 21:34 | 59.68077 | 20.85592 | 15689 ft | 234 kts | 274° |
| 2026-05-04 21:34 | 59.68284 | 20.82394 | 15686 ft | 234 kts | 274° |
| 2026-05-04 21:34 | 59.68493 | 20.79201 | 15686 ft | 234 kts | 274° |
| 2026-05-04 21:35 | 59.68699 | 20.76004 | 15654 ft | 233 kts | 274° |
| 2026-05-04 21:35 | 59.68904 | 20.72821 | 15673 ft | 233 kts | 274° |
| 2026-05-04 21:35 | 59.69108 | 20.69640 | 15703 ft | 233 kts | 274° |
| 2026-05-04 21:35 | 59.69312 | 20.66459 | 15694 ft | 233 kts | 274° |
| 2026-05-04 21:36 | 59.69514 | 20.63285 | 15691 ft | 232 kts | 274° |
| 2026-05-04 21:36 | 59.69712 | 20.60144 | 15690 ft | 232 kts | 274° |
| 2026-05-04 21:36 | 59.69912 | 20.56977 | 15686 ft | 232 kts | 274° |
| 2026-05-04 21:36 | 59.70112 | 20.53808 | 15686 ft | 232 kts | 274° |
| 2026-05-04 21:37 | 59.70309 | 20.50643 | 15686 ft | 232 kts | 274° |
| 2026-05-04 21:37 | 59.70506 | 20.47475 | 15686 ft | 232 kts | 274° |
| 2026-05-04 21:37 | 59.70703 | 20.44314 | 15686 ft | 232 kts | 274° |
| 2026-05-04 21:37 | 59.71108 | 20.41250 | 15689 ft | 235 kts | 290° |
| 2026-05-04 21:38 | 59.71663 | 20.38301 | 15687 ft | 224 kts | 273° |
| 2026-05-04 21:38 | 59.71797 | 20.35248 | 15685 ft | 222 kts | 274° |
| 2026-05-04 21:38 | 59.72150 | 20.32241 | 15685 ft | 223 kts | 276° |
| 2026-05-04 21:38 | 59.72353 | 20.29198 | 15683 ft | 223 kts | 273° |
| 2026-05-04 21:39 | 59.72702 | 20.26202 | 15685 ft | 224 kts | 279° |
| 2026-05-04 21:39 | 59.72968 | 20.23172 | 15684 ft | 223 kts | 274° |
| 2026-05-04 21:39 | 59.73199 | 20.20131 | 15684 ft | 225 kts | 279° |
| 2026-05-04 21:39 | 59.73565 | 20.17122 | 15683 ft | 224 kts | 275° |
| 2026-05-04 21:40 | 59.73791 | 20.14066 | 15682 ft | 224 kts | 274° |
| 2026-05-04 21:40 | 59.74037 | 20.10993 | 15682 ft | 227 kts | 275° |
| 2026-05-04 21:40 | 59.74344 | 20.07928 | 15683 ft | 227 kts | 279° |
| 2026-05-04 21:40 | 59.74650 | 20.04858 | 15692 ft | 227 kts | 275° |
| 2026-05-04 21:41 | 59.74900 | 20.01759 | 15695 ft | 227 kts | 276° |
| 2026-05-04 21:41 | 59.75251 | 19.98691 | 15687 ft | 228 kts | 276° |
| 2026-05-04 21:41 | 59.75512 | 19.95637 | 15683 ft | 227 kts | 275° |
| 2026-05-04 21:41 | 59.75793 | 19.92552 | 15682 ft | 228 kts | 279° |
| 2026-05-04 21:42 | 59.76111 | 19.89479 | 15680 ft | 227 kts | 275° |
| 2026-05-04 21:42 | 59.76356 | 19.86392 | 15680 ft | 227 kts | 275° |
| 2026-05-04 21:42 | 59.76687 | 19.83326 | 15680 ft | 227 kts | 277° |
| 2026-05-04 21:42 | 59.76951 | 19.80241 | 15680 ft | 226 kts | 275° |
| 2026-05-04 21:43 | 59.77223 | 19.77171 | 15682 ft | 227 kts | 279° |
| 2026-05-04 21:43 | 59.77552 | 19.74108 | 15680 ft | 226 kts | 276° |
| 2026-05-04 21:43 | 59.77797 | 19.71023 | 15680 ft | 226 kts | 275° |
| 2026-05-04 21:43 | 59.78109 | 19.67967 | 15680 ft | 227 kts | 278° |
| 2026-05-04 21:44 | 59.78397 | 19.64896 | 15680 ft | 226 kts | 275° |
| 2026-05-04 21:44 | 59.78631 | 19.61812 | 15680 ft | 226 kts | 275° |
| 2026-05-04 21:44 | 59.78961 | 19.58754 | 15678 ft | 226 kts | 276° |
| 2026-05-04 21:44 | 59.79214 | 19.55673 | 15676 ft | 226 kts | 275° |
| 2026-05-04 21:45 | 59.79490 | 19.52594 | 15673 ft | 227 kts | 278° |
| 2026-05-04 21:45 | 59.79789 | 19.49522 | 15672 ft | 226 kts | 275° |
| 2026-05-04 21:45 | 59.80024 | 19.46424 | 15671 ft | 226 kts | 275° |
| 2026-05-04 21:45 | 59.80355 | 19.43359 | 15669 ft | 227 kts | 276° |
| 2026-05-04 21:46 | 59.80603 | 19.40315 | 15664 ft | 226 kts | 275° |
| 2026-05-04 21:46 | 59.80873 | 19.37232 | 15663 ft | 227 kts | 279° |
| 2026-05-04 21:46 | 59.81179 | 19.34167 | 15660 ft | 226 kts | 275° |
| 2026-05-04 21:46 | 59.81412 | 19.31071 | 15659 ft | 226 kts | 274° |
| 2026-05-04 21:47 | 59.81733 | 19.28006 | 15659 ft | 226 kts | 277° |
| 2026-05-04 21:47 | 59.81991 | 19.24927 | 15657 ft | 226 kts | 275° |
| 2026-05-04 21:47 | 59.82229 | 19.21776 | 15359 ft | 236 kts | 277° |
| 2026-05-04 21:47 | 59.82568 | 19.18512 | 15028 ft | 245 kts | 275° |
| 2026-05-04 21:48 | 59.82825 | 19.15104 | 14703 ft | 253 kts | 274° |
| 2026-05-04 21:48 | 59.83163 | 19.11664 | 14467 ft | 255 kts | 278° |
| 2026-05-04 21:48 | 59.83483 | 19.08291 | 14249 ft | 239 kts | 275° |
| 2026-05-04 21:48 | 59.83724 | 19.05099 | 14009 ft | 228 kts | 274° |
| 2026-05-04 21:49 | 59.83950 | 19.02051 | 13755 ft | 219 kts | 275° |
| 2026-05-04 21:49 | 59.84270 | 18.99116 | 13468 ft | 214 kts | 275° |
| 2026-05-04 21:49 | 59.84498 | 18.96242 | 13147 ft | 212 kts | 273° |
| 2026-05-04 21:49 | 59.84714 | 18.93360 | 12830 ft | 211 kts | 276° |
| 2026-05-04 21:50 | 59.84994 | 18.90507 | 12497 ft | 209 kts | 274° |
| 2026-05-04 21:50 | 59.85203 | 18.87625 | 12174 ft | 212 kts | 273° |
| 2026-05-04 21:50 | 59.85497 | 18.84736 | 11864 ft | 214 kts | 276° |
| 2026-05-04 21:50 | 59.85729 | 18.81799 | 11567 ft | 216 kts | 274° |
| 2026-05-04 21:51 | 59.85960 | 18.78843 | 11282 ft | 218 kts | 278° |
| 2026-05-04 21:51 | 59.86243 | 18.75884 | 10995 ft | 218 kts | 275° |
| 2026-05-04 21:51 | 59.86448 | 18.72879 | 10746 ft | 219 kts | 275° |
| 2026-05-04 21:51 | 59.86749 | 18.69899 | 10470 ft | 220 kts | 276° |
| 2026-05-04 21:52 | 59.86971 | 18.66887 | 10201 ft | 221 kts | 275° |
| 2026-05-04 21:52 | 59.87233 | 18.63871 | 9935 ft | 221 kts | 279° |
| 2026-05-04 21:52 | 59.87499 | 18.60849 | 9682 ft | 221 kts | 275° |
| 2026-05-04 21:52 | 59.87701 | 18.57835 | 9411 ft | 218 kts | 275° |
| 2026-05-04 21:53 | 59.88006 | 18.54925 | 9105 ft | 217 kts | 277° |
| 2026-05-04 21:53 | 59.88232 | 18.51912 | 8822 ft | 218 kts | 275° |
| 2026-05-04 21:53 | 59.88431 | 18.48962 | 8550 ft | 217 kts | 276° |
| 2026-05-04 21:53 | 59.88740 | 18.46021 | 8276 ft | 217 kts | 277° |
| 2026-05-04 21:54 | 59.88959 | 18.43045 | 8012 ft | 217 kts | 276° |
| 2026-05-04 21:54 | 59.89189 | 18.40069 | 7752 ft | 216 kts | 280° |
| 2026-05-04 21:54 | 59.89463 | 18.37147 | 7384 ft | 217 kts | 277° |
| 2026-05-04 21:54 | 59.89660 | 18.34137 | 6807 ft | 218 kts | 272° |
| 2026-05-04 21:55 | 59.89299 | 18.31212 | 6306 ft | 216 kts | 248° |
| 2026-05-04 21:55 | 59.88652 | 18.28537 | 5802 ft | 219 kts | 246° |
| 2026-05-04 21:55 | 59.88222 | 18.25706 | 5274 ft | 212 kts | 268° |
| 2026-05-04 21:55 | 59.88024 | 18.22847 | 4756 ft | 209 kts | 251° |
| 2026-05-04 21:56 | 59.87468 | 18.20149 | 4242 ft | 212 kts | 249° |
| 2026-05-04 21:56 | 59.86877 | 18.17439 | 3713 ft | 214 kts | 249° |
| 2026-05-04 21:56 | 59.86271 | 18.14724 | 3206 ft | 215 kts | 248° |
| 2026-05-04 21:56 | 59.85659 | 18.12030 | 2815 ft | 211 kts | 248° |
| 2026-05-04 21:57 | 59.85068 | 18.09445 | 2646 ft | 200 kts | 248° |
| 2026-05-04 21:57 | 59.84496 | 18.07005 | 2574 ft | 189 kts | 247° |
| 2026-05-04 21:57 | 59.83958 | 18.04688 | 2531 ft | 180 kts | 248° |
| 2026-05-04 21:57 | 59.83445 | 18.02478 | 2524 ft | 171 kts | 248° |
| 2026-05-04 21:58 | 59.82959 | 18.00414 | 2515 ft | 164 kts | 248° |
| 2026-05-04 21:58 | 59.82467 | 17.98419 | 2502 ft | 157 kts | 243° |
| 2026-05-04 21:58 | 59.81563 | 17.97259 | 2508 ft | 166 kts | 197° |
| 2026-05-04 21:58 | 59.80430 | 17.97037 | 2493 ft | 159 kts | 197° |
| 2026-05-04 21:59 | 59.79343 | 17.96772 | 2502 ft | 156 kts | 198° |
| 2026-05-04 21:59 | 59.78276 | 17.96516 | 2458 ft | 156 kts | 198° |
| 2026-05-04 21:59 | 59.77198 | 17.96249 | 2273 ft | 153 kts | 199° |
| 2026-05-04 21:59 | 59.76173 | 17.95906 | 2101 ft | 147 kts | 203° |
| 2026-05-04 22:00 | 59.75182 | 17.95494 | 1899 ft | 145 kts | 204° |
| 2026-05-04 22:00 | 59.74193 | 17.95099 | 1703 ft | 144 kts | 203° |
| 2026-05-04 22:00 | 59.73232 | 17.94760 | 1510 ft | 137 kts | 203° |
| 2026-05-04 22:00 | 59.72319 | 17.94452 | 1319 ft | 130 kts | 203° |
| 2026-05-04 22:01 | 59.71471 | 17.94144 | 1153 ft | 116 kts | 202° |
| 2026-05-04 22:01 | 59.70733 | 17.93830 | 986 ft | 103 kts | 204° |
| 2026-05-04 22:01 | 59.70055 | 17.93558 | 854 ft | 96 kts | 195° |
| 2026-05-04 22:01 | 59.69372 | 17.93392 | 711 ft | 101 kts | 191° |
| 2026-05-04 22:02 | 59.68667 | 17.93215 | 552 ft | 107 kts | 197° |
| 2026-05-04 22:02 | 59.67944 | 17.92822 | 413 ft | 109 kts | 197° |
| 2026-05-04 22:02 | 59.67186 | 17.92574 | 310 ft | 111 kts | 195° |
| 2026-05-04 22:02 | 59.66434 | 17.92303 | 166 ft | 107 kts | 192° |
| 2026-05-04 22:03 | 59.65755 | 17.92042 | 140 ft | 87 kts | 188° |
| 2026-05-04 22:03 | 59.65346 | 17.91900 | 140 ft | 47 kts | 188° |
| 2026-05-04 22:03 | 59.65140 | 17.91925 | 138 ft | 11 kts | 165° |
| 2026-05-04 22:03 | 59.65034 | 17.92009 | 135 ft | 19 kts | 144° |
| 2026-05-04 22:04 | 59.64977 | 17.92146 | 134 ft | 1 kts | 77° |
| 2026-05-04 22:04 | 59.64977 | 17.92178 | 134 ft | 12 kts | 96° |
| 2026-05-04 22:04 | 59.64967 | 17.92341 | 134 ft | 16 kts | 52° |
| 2026-05-04 22:04 | 59.65090 | 17.92340 | 134 ft | 22 kts | 12° |
| 2026-05-04 22:05 | 59.65242 | 17.92411 | 134 ft | 22 kts | 18° |
| 2026-05-04 22:05 | 59.65372 | 17.92555 | 134 ft | 22 kts | 38° |
| 2026-05-04 22:05 | 59.65457 | 17.92797 | 134 ft | 21 kts | 73° |
| 2026-05-04 22:05 | 59.65502 | 17.93076 | 134 ft | 21 kts | 82° |
| 2026-05-04 22:06 | 59.65537 | 17.93350 | 134 ft | 21 kts | 75° |
| 2026-05-04 22:06 | 59.65571 | 17.93628 | 134 ft | 21 kts | 75° |
| 2026-05-04 22:06 | 59.65554 | 17.93868 | 134 ft | 17 kts | 153° |
| 2026-05-04 22:06 | 59.65455 | 17.93922 | 134 ft | 13 kts | 165° |
| 2026-05-04 22:07 | 59.65380 | 17.93959 | 134 ft | 10 kts | 166° |
| 2026-05-04 22:07 | 59.65338 | 17.93945 | 134 ft | 1 kts | 234° |
| 2026-05-04 22:07 | 59.65337 | 17.93942 | 134 ft | 2 kts | 230° |
| 2026-05-04 22:07 | 59.65323 | 17.93910 | 134 ft | 4 kts | 233° |
| 2026-05-04 22:08 | 59.65315 | 17.93875 | 134 ft | 4 kts | 252° |
| 2026-05-04 22:08 | 59.65310 | 17.93845 | 134 ft | 1 kts | 254° |
| 2026-05-04 22:08 | 59.65308 | 17.93828 | 134 ft | 1 kts | 254° |
| 2026-05-04 22:08 | 59.65308 | 17.93827 | 134 ft | 0 kts | 254° |